Time;durP1;ratioP1;P1;durP2;ratioP2;P2;SDS_P1;SDS_P2;PMS_P1;PMS_P2;Temp;Humidity;BMP_temperature;BMP_pressure;BME280_temperature;BME280_humidity;BME280_pressure;Samples;Min_cycle;Max_cycle;Signal;HPM_P1;HPM_P2
2023/08/12 00:02:22;;;;;;;12.90;3.90;;;;;;;20.62;80.75;101016.75;106508;1262;71241;-71
2023/08/12 00:04:48;;;;;;;11.20;4.20;;;;;;;20.62;80.60;101016.58;107034;1263;71494;-70
2023/08/12 00:07:15;;;;;;;10.30;4.00;;;;;;;20.61;80.61;101019.16;106302;1264;61292;-70
2023/08/12 00:12:33;;;;;;;14.10;3.80;;;;;;;20.63;80.50;101013.91;106876;1262;74453;-60
2023/08/12 00:15:00;;;;;;;12.30;4.50;;;;;;;20.60;80.49;101017.73;106425;1262;69951;-58
2023/08/12 00:17:27;;;;;;;10.30;3.60;;;;;;;20.55;80.78;101016.52;106133;1262;72390;-57
2023/08/12 00:19:53;;;;;;;11.20;4.10;;;;;;;20.54;80.84;101014.98;106388;1262;62541;-61
2023/08/12 00:22:19;;;;;;;9.20;3.50;;;;;;;20.54;80.93;101011.35;106321;1264;61379;-58
2023/08/12 00:24:46;;;;;;;14.80;3.70;;;;;;;20.51;80.93;101006.49;106582;1262;59190;-59
2023/08/12 00:27:13;;;;;;;8.40;3.80;;;;;;;20.50;81.01;101009.21;106662;1262;59972;-57
2023/08/12 00:29:39;;;;;;;9.00;4.10;;;;;;;20.50;80.99;101005.33;106229;1262;61686;-61
2023/08/12 00:32:06;;;;;;;12.60;4.00;;;;;;;20.45;81.05;101002.52;106322;1262;61379;-57
2023/08/12 00:34:32;;;;;;;8.40;4.10;;;;;;;20.44;81.26;101003.19;106321;1262;60448;-60
2023/08/12 00:36:59;;;;;;;10.00;3.50;;;;;;;20.39;81.38;101006.73;106456;1262;61698;-58
2023/08/12 00:39:26;;;;;;;9.50;3.60;;;;;;;20.38;81.50;101008.45;105936;1262;61239;-57
2023/08/12 00:41:52;;;;;;;9.70;3.60;;;;;;;20.38;81.51;101011.35;106363;1262;72666;-56
2023/08/12 00:44:19;;;;;;;12.80;3.80;;;;;;;20.38;81.53;101010.81;106259;1262;61382;-58
2023/08/12 00:46:46;;;;;;;13.20;4.20;;;;;;;20.36;81.56;101006.73;106690;1262;61125;-59
2023/08/12 00:49:13;;;;;;;11.00;3.40;;;;;;;20.36;81.47;101004.62;106260;1262;74655;-61
2023/08/12 00:51:41;;;;;;;13.50;3.70;;;;;;;20.35;81.60;100998.52;106460;1262;69394;-56
2023/08/12 00:54:13;;;;;;;14.70;4.00;;;;;;;20.34;81.68;101000.48;106200;1262;72032;-60
2023/08/12 00:56:40;;;;;;;13.50;3.90;;;;;;;20.33;81.62;100996.89;107820;1262;62074;-57
2023/08/12 00:59:08;;;;;;;10.10;3.90;;;;;;;20.29;81.78;100993.35;108269;1262;60372;-60
2023/08/12 01:01:39;;;;;;;9.30;3.70;;;;;;;20.29;81.84;100988.49;108175;1262;74526;-57
2023/08/12 01:04:06;;;;;;;8.60;3.60;;;;;;;20.30;81.84;100983.25;106539;1262;71174;-61
2023/08/12 01:06:33;;;;;;;10.80;3.60;;;;;;;20.29;81.84;100980.05;108199;1262;71119;-59
2023/08/12 01:09:00;;;;;;;9.90;4.00;;;;;;;20.30;81.79;100979.89;106235;1262;61404;-59
2023/08/12 01:11:32;;;;;;;11.00;4.20;;;;;;;20.28;81.72;100977.45;106101;1262;61290;-59
2023/08/12 01:14:08;;;;;;;13.90;4.00;;;;;;;20.26;81.83;100973.34;106138;1262;74710;-58
2023/08/12 01:16:39;;;;;;;14.50;4.00;;;;;;;20.27;81.77;100965.81;106149;1262;70065;-58
2023/08/12 01:30:59;;;;;;;12.30;3.90;;;;;;;20.26;81.90;100952.33;104808;1261;65761;-62
2023/08/12 01:33:36;;;;;;;7.40;3.40;;;;;;;20.28;81.79;100949.05;106697;1261;71066;-61
2023/08/12 01:36:17;;;;;;;10.00;3.50;;;;;;;20.30;81.80;100947.73;106637;1265;61286;-58
2023/08/12 01:38:46;;;;;;;11.40;3.90;;;;;;;20.33;81.69;100946.23;105662;1265;61259;-58
2023/08/12 01:41:15;;;;;;;6.50;3.50;;;;;;;20.34;81.63;100946.16;105412;1262;75084;-55
2023/08/12 01:43:42;;;;;;;8.40;3.20;;;;;;;20.35;81.55;100942.41;105481;1265;71183;-59
2023/08/12 01:46:10;;;;;;;7.80;3.60;;;;;;;20.36;81.55;100935.48;105483;1262;71482;-60
2023/08/12 01:48:37;;;;;;;8.70;3.70;;;;;;;20.36;81.42;100933.49;105625;1264;61349;-57
2023/08/12 01:51:03;;;;;;;8.70;3.30;;;;;;;20.35;81.37;100932.66;105618;1262;61178;-57
2023/08/12 01:53:30;;;;;;;7.20;3.30;;;;;;;20.35;81.36;100930.45;106161;1263;73204;-59
2023/08/12 01:55:56;;;;;;;8.50;3.70;;;;;;;20.34;81.34;100925.70;105970;1265;61217;-60
2023/08/12 01:58:23;;;;;;;9.50;3.40;;;;;;;20.32;81.39;100922.74;105447;1262;62464;-58
2023/08/12 02:00:49;;;;;;;6.30;3.30;;;;;;;20.31;81.51;100923.71;105656;1265;61379;-60
2023/08/12 02:03:16;;;;;;;9.30;3.30;;;;;;;20.31;81.40;100924.01;105363;1265;61370;-59
2023/08/12 02:05:43;;;;;;;6.90;3.20;;;;;;;20.31;81.51;100920.28;105401;1261;61277;-58
2023/08/12 02:08:10;;;;;;;6.00;3.00;;;;;;;20.30;81.52;100916.31;105500;1263;71672;-58
2023/08/12 02:10:36;;;;;;;7.90;3.40;;;;;;;20.31;81.49;100913.48;105803;1265;72386;-57
2023/08/12 02:13:03;;;;;;;6.30;3.40;;;;;;;20.31;81.54;100910.25;106051;1265;61692;-54
2023/08/12 02:15:29;;;;;;;9.40;3.20;;;;;;;20.31;81.47;100914.85;105436;1263;61164;-62
2023/08/12 02:17:56;;;;;;;6.20;3.20;;;;;;;20.32;81.61;100910.98;105431;1265;61267;-59
2023/08/12 02:20:22;;;;;;;6.10;3.10;;;;;;;20.32;81.49;100911.14;105405;1263;71121;-58
2023/08/12 02:22:49;;;;;;;7.40;3.20;;;;;;;20.33;81.52;100909.92;105858;1263;61260;-57
2023/08/12 02:25:15;;;;;;;9.10;3.80;;;;;;;20.34;81.53;100910.50;105460;1265;61376;-57
2023/08/12 02:27:42;;;;;;;9.70;3.20;;;;;;;20.36;81.47;100910.32;105265;1266;61765;-60
2023/08/12 02:30:09;;;;;;;6.80;3.20;;;;;;;20.38;81.48;100908.10;105802;1268;61282;-58
2023/08/12 02:32:36;;;;;;;8.60;3.00;;;;;;;20.40;81.38;100907.70;105491;1264;71697;-61
2023/08/12 02:35:02;;;;;;;9.00;3.10;;;;;;;20.41;81.17;100903.31;105579;1266;61290;-59
2023/08/12 02:37:29;;;;;;;5.40;3.20;;;;;;;20.41;81.12;100899.21;105386;1263;61180;-62
2023/08/12 02:39:55;;;;;;;6.80;3.10;;;;;;;20.43;81.06;100900.08;105389;1267;61247;-59
2023/08/12 02:42:22;;;;;;;6.90;3.00;;;;;;;20.46;81.00;100899.34;105272;1268;61180;-60
2023/08/12 02:44:48;;;;;;;7.60;2.90;;;;;;;20.49;80.84;100900.20;105506;1266;61782;-60
2023/08/12 02:47:15;;;;;;;6.60;2.80;;;;;;;20.52;80.66;100903.20;105425;1267;61298;-60
2023/08/12 02:49:41;;;;;;;6.30;2.90;;;;;;;20.52;81.17;100918.30;106038;1266;61306;-58
2023/08/12 02:52:08;;;;;;;6.30;3.10;;;;;;;20.49;81.43;100918.59;105618;1264;61224;-60
2023/08/12 02:54:34;;;;;;;6.60;3.20;;;;;;;20.47;81.52;100917.14;105384;1267;61629;-57
2023/08/12 02:57:00;;;;;;;6.70;3.70;;;;;;;20.43;81.61;100919.15;105513;1263;61420;-61
2023/08/12 02:59:27;;;;;;;5.90;3.70;;;;;;;20.41;81.66;100915.65;105356;1262;62956;-58
2023/08/12 03:01:54;;;;;;;7.70;3.60;;;;;;;20.40;81.75;100918.60;105537;1263;61293;-58
2023/08/12 03:04:20;;;;;;;9.40;3.80;;;;;;;20.38;82.10;100916.40;105550;1267;61244;-54
2023/08/12 03:06:47;;;;;;;9.80;3.80;;;;;;;20.39;82.19;100915.17;105363;1266;61299;-58
2023/08/12 03:09:13;;;;;;;7.30;3.50;;;;;;;20.39;82.36;100909.77;106562;1263;61254;-56
2023/08/12 03:11:43;;;;;;;6.70;3.40;;;;;;;20.38;82.55;100909.02;105737;1266;72828;-60
2023/08/12 03:14:09;;;;;;;8.60;3.60;;;;;;;20.39;82.62;100911.73;105269;1266;61735;-58
2023/08/12 03:16:36;;;;;;;6.60;3.40;;;;;;;20.38;82.63;100915.01;105328;1267;61131;-59
2023/08/12 03:19:02;;;;;;;8.50;3.50;;;;;;;20.41;82.56;100918.20;105492;1266;61033;-59
2023/08/12 03:21:29;;;;;;;9.60;3.30;;;;;;;20.42;82.59;100917.84;105360;1266;61669;-60
2023/08/12 03:23:55;;;;;;;6.10;3.30;;;;;;;20.43;82.84;100922.33;105319;1266;61274;-58
2023/08/12 03:26:22;;;;;;;6.90;3.30;;;;;;;20.41;83.11;100925.63;105684;1266;61361;-59
2023/08/12 03:28:48;;;;;;;9.50;3.50;;;;;;;20.41;83.13;100925.40;105907;1266;59937;-61
2023/08/12 03:31:15;;;;;;;7.80;3.30;;;;;;;20.42;83.07;100937.00;105519;1266;61277;-54
2023/08/12 03:33:41;;;;;;;9.10;3.30;;;;;;;20.41;83.18;100937.69;105624;1262;61369;-67
2023/08/12 03:36:08;;;;;;;6.80;3.40;;;;;;;20.36;83.20;100937.59;105191;1266;61271;-58
2023/08/12 03:38:35;;;;;;;6.10;3.40;;;;;;;20.32;83.53;100934.90;105561;1267;61266;-58
2023/08/12 03:41:03;;;;;;;8.60;3.10;;;;;;;20.32;83.59;100932.70;105786;1262;61262;-63
2023/08/12 03:43:29;;;;;;;6.10;3.40;;;;;;;20.33;83.55;100925.79;105580;1265;72487;-59
2023/08/12 03:45:56;;;;;;;7.40;3.10;;;;;;;20.34;83.48;100916.95;105379;1266;61328;-64
2023/08/12 03:48:23;;;;;;;6.90;3.10;;;;;;;20.35;83.40;100916.73;105706;1266;61384;-59
2023/08/12 03:50:49;;;;;;;8.40;3.20;;;;;;;20.38;83.43;100918.02;105440;1267;62902;-60
2023/08/12 03:53:17;;;;;;;6.80;3.10;;;;;;;20.40;83.38;100912.99;105544;1263;61954;-60
2023/08/12 03:55:44;;;;;;;5.70;3.40;;;;;;;20.42;83.25;100918.31;105363;1266;74719;-61
2023/08/12 03:58:10;;;;;;;6.70;3.20;;;;;;;20.44;83.22;100922.52;105898;1262;69201;-55
2023/08/12 04:00:42;;;;;;;6.40;3.70;;;;;;;20.45;83.40;100939.15;105479;1266;61380;-58
2023/08/12 04:03:09;;;;;;;6.90;3.50;;;;;;;20.45;83.54;100929.76;105782;1266;61297;-55
2023/08/12 04:05:36;;;;;;;7.00;3.50;;;;;;;20.47;83.55;100916.77;106138;1266;61250;-56
2023/08/12 04:08:02;;;;;;;7.70;3.20;;;;;;;20.48;83.55;100910.65;105485;1268;61363;-56
2023/08/12 04:10:30;;;;;;;6.90;3.20;;;;;;;20.52;83.73;100908.14;105376;1266;61386;-55
2023/08/12 04:12:56;;;;;;;7.10;3.90;;;;;;;20.54;83.78;100912.17;105489;1268;72881;-58
2023/08/12 04:15:23;;;;;;;7.30;3.90;;;;;;;20.56;83.76;100917.52;106019;1266;61180;-60
2023/08/12 04:17:49;;;;;;;8.20;3.70;;;;;;;20.59;83.78;100916.66;108331;1263;59266;-55
2023/08/12 04:20:16;;;;;;;6.10;3.40;;;;;;;20.59;83.87;100922.16;108433;1263;59412;-56
2023/08/12 04:22:42;;;;;;;6.00;3.90;;;;;;;20.61;83.87;100925.95;108492;1264;59272;-58
2023/08/12 04:25:09;;;;;;;8.70;3.50;;;;;;;20.64;83.87;100934.52;106636;1263;61244;-57
2023/08/12 04:27:35;;;;;;;7.60;3.70;;;;;;;20.66;83.87;100936.73;105933;1267;61362;-57
2023/08/12 04:30:02;;;;;;;6.80;3.80;;;;;;;20.68;83.96;100935.70;105671;1262;61875;-56
2023/08/12 04:32:28;;;;;;;6.10;3.40;;;;;;;20.67;84.01;100931.26;105682;1264;61167;-56
2023/08/12 04:34:55;;;;;;;7.10;4.40;;;;;;;20.68;84.26;100934.20;106182;1268;61880;-61
2023/08/12 04:37:23;;;;;;;6.50;4.50;;;;;;;20.69;84.34;100939.23;105781;1262;61353;-56
2023/08/12 04:39:50;;;;;;;8.10;4.30;;;;;;;20.68;84.66;100942.11;105808;1262;62495;-57
2023/08/12 04:42:16;;;;;;;9.40;4.40;;;;;;;20.64;85.35;100938.75;105792;1263;61751;-58
2023/08/12 04:44:43;;;;;;;9.50;4.60;;;;;;;20.59;86.24;100931.07;105691;1264;61375;-56
2023/08/12 04:47:09;;;;;;;8.20;4.70;;;;;;;20.53;87.12;100927.73;105783;1267;61662;-62
2023/08/12 04:49:37;;;;;;;8.30;5.40;;;;;;;20.46;88.13;100926.33;105816;1263;71538;-56
2023/08/12 04:52:03;;;;;;;8.80;5.60;;;;;;;20.39;88.88;100920.56;105465;1264;219433;-60
2023/08/12 04:54:30;;;;;;;12.20;6.20;;;;;;;20.34;89.48;100927.36;106199;1263;61363;-61
2023/08/12 04:56:56;;;;;;;9.00;5.60;;;;;;;20.29;90.76;100928.64;105920;1267;61363;-55
2023/08/12 04:59:23;;;;;;;9.90;6.60;;;;;;;20.23;91.74;100928.55;105929;1263;61841;-55
2023/08/12 05:01:49;;;;;;;8.90;6.80;;;;;;;20.18;92.48;100934.34;105893;1263;61801;-58
2023/08/12 05:04:29;;;;;;;10.20;6.80;;;;;;;20.14;92.73;100936.59;106105;1264;61280;-58
2023/08/12 05:06:56;;;;;;;10.20;7.70;;;;;;;20.13;92.90;100942.00;105826;1266;61235;-59
2023/08/12 05:09:22;;;;;;;10.60;7.40;;;;;;;20.13;93.28;100940.23;105710;1263;73042;-56
2023/08/12 05:11:49;;;;;;;11.60;7.40;;;;;;;20.13;93.60;100939.40;105564;1267;61173;-55
2023/08/12 05:14:15;;;;;;;10.50;7.70;;;;;;;20.15;93.96;100943.77;106023;1267;61372;-60
2023/08/12 05:16:42;;;;;;;12.90;8.00;;;;;;;20.18;94.30;100949.73;105759;1263;61351;-57
2023/08/12 05:19:08;;;;;;;11.50;8.60;;;;;;;20.20;94.58;100951.39;106011;1264;61286;-57
2023/08/12 05:21:35;;;;;;;13.30;8.20;;;;;;;20.23;95.00;100950.48;106161;1262;61232;-51
2023/08/12 05:24:01;;;;;;;13.50;8.50;;;;;;;20.24;95.39;100958.04;105716;1267;62644;-58
2023/08/12 05:26:28;;;;;;;9.20;7.80;;;;;;;20.26;95.62;100954.16;105787;1265;61250;-56
2023/08/12 05:28:54;;;;;;;14.90;8.70;;;;;;;20.27;95.82;100950.56;105634;1266;61388;-56
2023/08/12 05:31:22;;;;;;;12.70;8.60;;;;;;;20.27;96.25;100947.95;105992;1266;61775;-54
2023/08/12 05:33:48;;;;;;;13.10;9.00;;;;;;;20.32;96.37;100949.85;106209;1267;73720;-59
2023/08/12 05:36:15;;;;;;;12.00;9.20;;;;;;;20.40;96.41;100947.27;106002;1264;61167;-52
2023/08/12 05:38:41;;;;;;;12.70;8.80;;;;;;;20.48;96.40;100939.63;105769;1274;61284;-56
2023/08/12 05:41:08;;;;;;;11.90;8.60;;;;;;;20.58;96.43;100937.66;106085;1264;61791;-59
2023/08/12 05:43:34;;;;;;;11.70;8.40;;;;;;;20.70;96.37;100937.40;105914;1266;61286;-56
2023/08/12 05:46:01;;;;;;;13.60;9.10;;;;;;;20.79;95.94;100933.71;105756;1266;73804;-60
2023/08/12 05:48:28;;;;;;;10.90;8.60;;;;;;;20.84;95.87;100932.81;106596;1266;70962;-56
2023/08/12 05:50:54;;;;;;;13.70;9.30;;;;;;;20.89;95.75;100934.46;106472;1263;72702;-54
2023/08/12 05:53:22;;;;;;;12.70;9.20;;;;;;;20.92;95.86;100938.73;106199;1263;62187;-55
2023/08/12 05:55:48;;;;;;;12.00;9.70;;;;;;;20.93;95.80;100936.91;106347;1263;61352;-56
2023/08/12 05:58:14;;;;;;;18.20;9.40;;;;;;;20.96;95.79;100935.59;105739;1267;61375;-59
2023/08/12 06:00:45;;;;;;;12.50;9.60;;;;;;;21.01;95.93;100940.38;105916;1262;61263;-56
2023/08/12 06:03:12;;;;;;;13.10;9.60;;;;;;;21.04;96.00;100934.20;106006;1266;73207;-55
2023/08/12 06:05:40;;;;;;;11.80;10.00;;;;;;;21.05;95.80;100933.50;105823;1266;61369;-56
2023/08/12 06:08:09;;;;;;;12.50;9.10;;;;;;;21.06;96.04;100926.95;105851;1262;61142;-57
2023/08/12 06:10:35;;;;;;;12.80;10.10;;;;;;;21.08;96.32;100925.00;106446;1264;61363;-54
2023/08/12 06:13:05;;;;;;;12.70;9.30;;;;;;;21.10;96.34;100921.21;106197;1264;71106;-59
2023/08/12 06:15:36;;;;;;;12.20;9.40;;;;;;;21.11;96.50;100913.94;105727;1267;73262;-57
2023/08/12 06:18:02;;;;;;;13.60;9.60;;;;;;;21.13;96.46;100911.70;105998;1264;61872;-55
2023/08/12 06:20:29;;;;;;;16.30;10.00;;;;;;;21.16;96.31;100911.83;105807;1269;61282;-56
2023/08/12 06:22:55;;;;;;;15.50;9.60;;;;;;;21.24;96.30;100909.60;105976;1267;61351;-60
2023/08/12 06:25:22;;;;;;;12.80;9.30;;;;;;;21.30;96.27;100908.09;106203;1263;61371;-57
2023/08/12 06:27:48;;;;;;;13.40;9.60;;;;;;;21.33;95.99;100903.41;106693;1267;59125;-59
2023/08/12 06:30:15;;;;;;;12.40;9.20;;;;;;;21.38;95.86;100898.41;106143;1264;61460;-60
2023/08/12 06:32:41;;;;;;;13.00;9.60;;;;;;;21.46;95.48;100894.98;105955;1266;61256;-54
2023/08/12 06:35:08;;;;;;;12.60;9.20;;;;;;;21.57;95.16;100885.72;105974;1267;74469;-61
2023/08/12 06:37:35;;;;;;;13.10;9.40;;;;;;;21.68;95.02;100888.51;105850;1263;71408;-53
2023/08/12 06:40:03;;;;;;;12.10;9.20;;;;;;;21.80;94.64;100894.10;105865;1267;72778;-58
2023/08/12 06:42:30;;;;;;;14.70;8.80;;;;;;;21.91;93.89;100893.91;105888;1266;61380;-60
2023/08/12 06:44:59;;;;;;;13.10;9.20;;;;;;;22.01;93.76;100897.58;106579;1263;61135;-55
2023/08/12 06:47:27;;;;;;;12.10;8.50;;;;;;;22.12;93.31;100891.95;106437;1266;74657;-58
2023/08/12 06:49:55;;;;;;;10.70;8.40;;;;;;;22.19;92.44;100889.69;105882;1262;71014;-57
2023/08/12 06:52:22;;;;;;;11.00;8.10;;;;;;;22.22;91.85;100889.15;105681;1263;72794;-57
2023/08/12 06:54:49;;;;;;;11.30;8.90;;;;;;;22.19;91.24;100885.80;106122;1262;60805;-58
2023/08/12 06:57:15;;;;;;;13.00;8.40;;;;;;;22.23;91.57;100890.64;106286;1262;61227;-57
2023/08/12 06:59:42;;;;;;;11.70;8.50;;;;;;;22.30;91.53;100891.11;106429;1266;60038;-54
2023/08/12 07:02:08;;;;;;;11.40;8.30;;;;;;;22.37;91.38;100890.94;106204;1262;59267;-55
2023/08/12 07:04:35;;;;;;;12.70;8.50;;;;;;;22.45;91.19;100887.88;106574;1263;73362;-57
2023/08/12 07:07:02;;;;;;;15.40;8.20;;;;;;;22.58;91.18;100886.42;106499;1263;59375;-57
2023/08/12 07:09:28;;;;;;;11.90;8.60;;;;;;;22.69;90.14;100882.35;106288;1266;61196;-55
2023/08/12 07:11:55;;;;;;;11.10;7.70;;;;;;;22.79;89.64;100881.72;105828;1266;61168;-56
2023/08/12 07:14:22;;;;;;;12.10;7.70;;;;;;;22.91;89.20;100883.31;105966;1266;61161;-57
2023/08/12 07:16:48;;;;;;;10.60;7.90;;;;;;;23.02;88.79;100886.66;106270;1264;72701;-57
2023/08/12 07:19:15;;;;;;;11.10;7.40;;;;;;;23.18;88.43;100890.48;107487;1262;61147;-58
2023/08/12 07:21:42;;;;;;;8.70;7.20;;;;;;;23.30;87.27;100889.23;107595;1262;62280;-53
2023/08/12 07:24:09;;;;;;;10.60;7.40;;;;;;;23.41;86.87;100884.54;108177;1262;59400;-53
2023/08/12 07:26:35;;;;;;;11.70;7.50;;;;;;;23.45;86.06;100881.44;106366;1264;61223;-56
2023/08/12 07:29:02;;;;;;;11.10;7.50;;;;;;;23.47;85.32;100878.42;108503;1262;59046;-54
2023/08/12 07:31:28;;;;;;;10.10;7.10;;;;;;;23.53;85.63;100874.63;107793;1262;59056;-55
2023/08/12 07:33:55;;;;;;;10.60;7.10;;;;;;;23.61;85.87;100867.66;107855;1262;60368;-52
2023/08/12 07:36:22;;;;;;;9.50;6.80;;;;;;;23.67;85.40;100867.54;106752;1262;61346;-49
2023/08/12 07:38:48;;;;;;;10.80;6.30;;;;;;;23.72;85.02;100871.21;106399;1262;71216;-53
2023/08/12 07:41:15;;;;;;;12.20;6.70;;;;;;;23.79;84.93;100868.54;106859;1264;61733;-55
2023/08/12 07:43:41;;;;;;;10.50;6.90;;;;;;;23.86;83.86;100861.88;106133;1262;61367;-49
2023/08/12 07:46:08;;;;;;;9.40;6.30;;;;;;;23.94;83.60;100858.10;105738;1263;61270;-49
2023/08/12 07:48:37;;;;;;;9.00;6.00;;;;;;;24.07;83.47;100855.14;105912;1264;74485;-50
2023/08/12 07:51:04;;;;;;;10.20;6.40;;;;;;;24.21;83.18;100854.19;106009;1264;71091;-54
2023/08/12 07:53:31;;;;;;;12.60;6.20;;;;;;;24.37;82.79;100852.55;106008;1264;71453;-52
2023/08/12 07:55:57;;;;;;;12.20;6.50;;;;;;;24.50;81.44;100855.23;105964;1263;61277;-49
2023/08/12 07:58:24;;;;;;;10.40;6.20;;;;;;;24.52;79.66;100862.36;106129;1266;61467;-52
2023/08/12 08:00:53;;;;;;;10.70;6.80;;;;;;;24.53;78.87;100866.43;106309;1263;61336;-49
2023/08/12 08:03:20;;;;;;;8.60;6.10;;;;;;;24.47;78.92;100869.25;105864;1264;69963;-53
2023/08/12 08:05:47;;;;;;;9.80;5.70;;;;;;;24.41;79.20;100868.14;105760;1264;60536;-52
2023/08/12 08:08:13;;;;;;;7.50;5.10;;;;;;;24.38;79.42;100866.81;105758;1263;61231;-51
2023/08/12 08:10:40;;;;;;;10.00;5.50;;;;;;;24.33;79.48;100859.04;105833;1264;61775;-53
2023/08/12 08:13:06;;;;;;;10.40;5.20;;;;;;;24.28;79.56;100857.23;105910;1266;61514;-50
2023/08/12 08:15:33;;;;;;;7.40;5.10;;;;;;;24.29;79.95;100854.03;106858;1262;61286;-55
2023/08/12 08:18:01;;;;;;;8.90;5.70;;;;;;;24.32;79.98;100860.05;106414;1264;61328;-56
2023/08/12 08:20:28;;;;;;;7.20;5.30;;;;;;;24.34;79.56;100861.10;105796;1264;61346;-54
2023/08/12 08:22:55;;;;;;;8.00;5.30;;;;;;;24.38;79.05;100863.55;105754;1262;61379;-51
2023/08/12 08:25:22;;;;;;;8.50;5.10;;;;;;;24.37;78.46;100862.20;105831;1266;74738;-53
2023/08/12 08:27:49;;;;;;;8.00;4.60;;;;;;;24.33;78.02;100859.80;105742;1262;70636;-50
2023/08/12 08:30:15;;;;;;;8.80;5.10;;;;;;;24.34;77.79;100859.74;105624;1266;71470;-53
2023/08/12 08:32:42;;;;;;;7.50;4.20;;;;;;;24.31;77.45;100855.02;105712;1267;61356;-51
2023/08/12 08:35:08;;;;;;;7.90;4.20;;;;;;;24.28;77.60;100857.60;106776;1262;61347;-55
2023/08/12 08:37:35;;;;;;;6.40;4.10;;;;;;;24.25;77.17;100858.13;105925;1264;61382;-52
2023/08/12 08:40:02;;;;;;;6.20;4.10;;;;;;;24.16;76.70;100857.27;105575;1264;61204;-52
2023/08/12 08:42:29;;;;;;;6.60;3.90;;;;;;;24.06;76.50;100856.70;105756;1264;72771;-52
2023/08/12 08:44:59;;;;;;;8.10;4.40;;;;;;;23.99;76.77;100852.98;105912;1264;61280;-54
2023/08/12 08:47:27;;;;;;;5.70;3.30;;;;;;;24.03;77.05;100848.66;105850;1263;61246;-55
2023/08/12 08:49:58;;;;;;;6.10;3.90;;;;;;;24.05;76.96;100840.83;106159;1269;73509;-50
2023/08/12 08:52:25;;;;;;;6.40;3.20;;;;;;;24.04;76.63;100840.60;107816;1262;71186;-50
2023/08/12 08:54:52;;;;;;;5.70;3.30;;;;;;;24.07;76.82;100840.78;108543;1263;72667;-53
2023/08/12 08:57:19;;;;;;;7.40;3.50;;;;;;;24.11;76.80;100838.73;108466;1263;60208;-52
2023/08/12 09:00:07;;;;;;;8.80;4.00;;;;;;;24.17;76.74;100844.03;108476;1262;59178;-51
2023/08/12 09:02:44;;;;;;;7.40;3.60;;;;;;;24.16;76.46;100850.00;108533;1263;73602;-52
2023/08/12 09:05:12;;;;;;;6.00;4.00;;;;;;;24.13;76.69;100852.51;106989;1263;70945;-56
2023/08/12 09:07:40;;;;;;;6.20;3.60;;;;;;;24.11;76.86;100852.35;106458;1262;73030;-50
2023/08/12 09:10:08;;;;;;;6.30;3.60;;;;;;;24.06;76.46;100850.85;106597;1263;61263;-53
2023/08/12 09:12:36;;;;;;;5.70;3.20;;;;;;;24.03;76.65;100850.40;107020;1262;61226;-50
2023/08/12 09:15:07;;;;;;;6.90;3.50;;;;;;;24.02;76.79;100843.79;107384;1262;73127;-53
2023/08/12 09:17:33;;;;;;;5.90;3.30;;;;;;;24.05;76.98;100835.84;106289;1262;71320;-50
2023/08/12 09:20:00;;;;;;;6.50;3.70;;;;;;;24.09;77.18;100839.33;105879;1266;61184;-51
2023/08/12 09:22:26;;;;;;;5.30;3.50;;;;;;;24.13;76.89;100840.92;105765;1265;61356;-51
2023/08/12 09:24:57;;;;;;;5.80;3.60;;;;;;;24.16;76.92;100841.05;105640;1262;61262;-52
2023/08/12 09:27:24;;;;;;;5.40;3.30;;;;;;;24.19;76.44;100836.77;106064;1262;74690;-53
2023/08/12 09:29:57;;;;;;;5.90;3.40;;;;;;;24.34;76.70;100832.42;106034;1262;68963;-52
2023/08/12 09:32:28;;;;;;;5.40;3.40;;;;;;;24.57;75.85;100823.81;106878;1262;72677;-51
2023/08/12 09:34:55;;;;;;;4.90;3.00;;;;;;;24.87;75.62;100817.73;105814;1265;62802;-54
2023/08/12 09:37:24;;;;;;;4.50;3.20;;;;;;;25.26;74.96;100820.27;105883;1263;61228;-49
2023/08/12 09:39:52;;;;;;;6.10;3.60;;;;;;;25.63;73.53;100823.80;105937;1264;73832;-51
2023/08/12 09:42:19;;;;;;;4.70;3.40;;;;;;;25.81;71.55;100825.20;105911;1262;71250;-55
2023/08/12 09:44:46;;;;;;;6.40;3.20;;;;;;;25.94;70.45;100818.42;106252;1262;71162;-53
2023/08/12 09:47:13;;;;;;;6.90;3.50;;;;;;;25.99;69.16;100816.34;105961;1262;61434;-53
2023/08/12 09:49:40;;;;;;;5.00;3.30;;;;;;;26.12;69.08;100811.09;105781;1264;61202;-52
2023/08/12 09:52:08;;;;;;;4.80;3.00;;;;;;;26.32;68.36;100798.73;106477;1263;73321;-49
2023/08/12 09:54:35;;;;;;;7.80;3.40;;;;;;;26.50;67.62;100789.95;108584;1262;69967;-49
2023/08/12 09:57:03;;;;;;;7.00;3.20;;;;;;;26.71;67.67;100786.39;108447;1261;72427;-54
2023/08/12 09:59:32;;;;;;;4.40;2.90;;;;;;;26.85;66.86;100781.63;108529;1262;60625;-50
2023/08/12 10:01:59;;;;;;;5.50;3.20;;;;;;;26.97;65.85;100781.12;108534;1262;60854;-52
2023/08/12 10:04:29;;;;;;;8.00;3.40;;;;;;;26.98;64.84;100778.98;108463;1261;75547;-53
2023/08/12 10:06:56;;;;;;;7.20;3.30;;;;;;;26.98;64.34;100777.58;108550;1262;69976;-49
2023/08/12 10:09:23;;;;;;;8.00;3.80;;;;;;;27.02;64.72;100776.49;106297;1262;73009;-51
2023/08/12 10:11:52;;;;;;;8.00;3.50;;;;;;;27.05;64.58;100773.21;106325;1264;61282;-50
2023/08/12 10:14:19;;;;;;;5.50;3.10;;;;;;;27.06;64.21;100770.48;105530;1267;61565;-54
2023/08/12 10:16:46;;;;;;;5.70;3.20;;;;;;;27.07;63.77;100771.52;105829;1263;75931;-54
2023/08/12 10:19:15;;;;;;;5.40;3.10;;;;;;;27.00;63.20;100780.83;106240;1262;71386;-50
2023/08/12 10:21:44;;;;;;;5.60;3.60;;;;;;;26.91;63.10;100782.84;107768;1262;72018;-49
2023/08/12 10:24:11;;;;;;;6.90;3.50;;;;;;;26.81;62.86;100788.24;105746;1262;61258;-51
2023/08/12 10:26:40;;;;;;;4.80;3.00;;;;;;;26.71;63.53;100790.32;105707;1266;61183;-57
2023/08/12 10:29:06;;;;;;;6.00;3.40;;;;;;;26.65;63.68;100788.23;106973;1262;74651;-54
2023/08/12 10:31:32;;;;;;;5.10;3.20;;;;;;;26.59;64.57;100787.72;106601;1265;61355;-52
2023/08/12 10:33:59;;;;;;;5.30;3.20;;;;;;;26.61;65.17;100787.38;105868;1262;61900;-51
2023/08/12 10:36:27;;;;;;;5.50;3.10;;;;;;;26.71;66.13;100793.91;105967;1262;61244;-50
2023/08/12 10:38:53;;;;;;;5.50;3.10;;;;;;;26.81;65.80;100797.88;105918;1262;61157;-51
2023/08/12 10:41:25;;;;;;;5.60;3.10;;;;;;;26.86;65.10;100801.27;106521;1262;73467;-53
2023/08/12 10:43:53;;;;;;;4.20;2.90;;;;;;;26.83;65.26;100794.22;105785;1262;70585;-48
2023/08/12 10:46:23;;;;;;;6.00;3.20;;;;;;;26.86;65.47;100803.13;106518;1262;71936;-54
2023/08/12 10:49:04;;;;;;;7.60;3.20;;;;;;;26.78;65.29;100800.56;106155;1262;61254;-50
2023/08/12 10:51:41;;;;;;;7.20;3.40;;;;;;;26.67;65.58;100801.88;106452;1262;60087;-51
2023/08/12 10:54:15;;;;;;;6.40;3.40;;;;;;;26.58;66.25;100799.95;105963;1262;74203;-49
2023/08/12 10:57:11;;;;;;;4.80;3.50;;;;;;;26.64;66.73;100792.64;106570;1262;71043;-50
2023/08/12 10:59:54;;;;;;;4.70;2.80;;;;;;;26.89;66.16;100770.45;106576;1262;75642;-52
2023/08/12 11:02:25;;;;;;;3.80;3.00;;;;;;;27.37;65.92;100754.08;108394;1262;62224;-56
2023/08/12 11:04:54;;;;;;;5.50;2.90;;;;;;;27.86;64.29;100751.39;108474;1263;60199;-53
2023/08/12 11:07:40;;;;;;;4.10;2.90;;;;;;;28.21;62.24;100743.07;106166;1262;76100;-54
2023/08/12 11:10:14;;;;;;;5.00;2.80;;;;;;;28.58;61.10;100734.74;105750;1267;69787;-49
2023/08/12 11:12:49;;;;;;;5.10;2.80;;;;;;;28.86;59.50;100742.08;105785;1266;73049;-52
2023/08/12 11:15:15;;;;;;;4.40;2.70;;;;;;;29.04;58.28;100733.61;108580;1262;59174;-51
2023/08/12 11:17:43;;;;;;;4.50;2.60;;;;;;;29.13;57.88;100731.41;105787;1262;61184;-55
2023/08/12 11:20:11;;;;;;;4.40;2.60;;;;;;;29.21;57.69;100733.80;106574;1261;74749;-50
2023/08/12 11:22:40;;;;;;;5.30;2.80;;;;;;;29.22;57.04;100732.35;106081;1260;71263;-51
2023/08/12 11:25:09;;;;;;;3.10;2.30;;;;;;;29.34;57.24;100736.41;106648;1262;72758;-52
2023/08/12 11:27:38;;;;;;;3.30;2.50;;;;;;;29.44;56.52;100734.06;106166;1265;61196;-50
2023/08/12 11:30:05;;;;;;;4.40;2.20;;;;;;;29.62;56.90;100724.21;107566;1260;59522;-54
2023/08/12 11:32:32;;;;;;;3.20;2.20;;;;;;;29.87;56.48;100721.50;107655;1262;74657;-56